METAR Data
IDs: Format: Raw Decoded Include TAF

Data at: 1233 UTC 22 Jan 2022

KORS 221215Z AUTO 33003KT 8SM FEW005 OVC020 05/05 A3061 RMK AO2